createdAt,value
2023-05-03T00:02:24.472Z,12.60
2023-05-03T00:04:54.478Z,12.60
2023-05-03T00:07:23.133Z,12.60
2023-05-03T00:09:50.325Z,12.50
2023-05-03T00:12:17.410Z,12.50
2023-05-03T00:14:46.464Z,12.50
2023-05-03T00:17:13.935Z,12.50
2023-05-03T00:19:41.006Z,12.50
2023-05-03T00:22:09.102Z,12.50
2023-05-03T00:24:36.266Z,12.50
2023-05-03T00:27:04.868Z,12.50
2023-05-03T00:29:31.889Z,12.50
2023-05-03T00:32:00.412Z,12.50
2023-05-03T00:34:27.570Z,12.50
2023-05-03T00:36:54.573Z,12.50
2023-05-03T00:39:21.579Z,12.50
2023-05-03T00:41:48.578Z,12.40
2023-05-03T00:44:15.536Z,12.40
2023-05-03T00:46:42.770Z,12.40
2023-05-03T00:49:09.792Z,12.40
2023-05-03T00:51:37.294Z,12.40
2023-05-03T00:54:05.020Z,12.40
2023-05-03T00:56:44.021Z,12.40
2023-05-03T00:59:19.374Z,12.40
2023-05-03T01:01:51.492Z,12.40
2023-05-03T01:04:22.221Z,12.50
2023-05-03T01:07:03.115Z,12.50
2023-05-03T01:09:51.818Z,12.50
2023-05-03T01:12:45.138Z,12.50
2023-05-03T01:15:33.768Z,12.50
2023-05-03T01:18:09.135Z,12.50
2023-05-03T01:20:38.209Z,12.50
2023-05-03T01:23:36.675Z,12.50
2023-05-03T01:26:26.233Z,12.50
2023-05-03T01:28:54.172Z,12.50
2023-05-03T01:31:30.011Z,12.40
2023-05-03T01:34:21.773Z,12.40
2023-05-03T01:36:50.940Z,12.50
2023-05-03T01:39:24.930Z,12.40
2023-05-03T01:41:53.116Z,12.50
2023-05-03T01:44:21.550Z,12.40
2023-05-03T01:46:49.802Z,12.40
2023-05-03T01:49:16.944Z,12.40
2023-05-03T01:51:43.919Z,12.40
2023-05-03T01:54:11.374Z,12.40
2023-05-03T01:56:38.541Z,12.40
2023-05-03T01:59:05.637Z,12.40
2023-05-03T02:01:32.783Z,12.40
2023-05-03T02:03:59.841Z,12.30
2023-05-03T02:06:27.062Z,12.30
2023-05-03T02:08:54.532Z,12.20
2023-05-03T02:11:21.881Z,12.20
2023-05-03T02:13:50.792Z,12.20
2023-05-03T02:16:21.043Z,12.20
2023-05-03T02:18:48.658Z,12.20
2023-05-03T02:21:15.918Z,12.30
2023-05-03T02:23:42.899Z,12.30
2023-05-03T02:26:09.882Z,12.30
2023-05-03T02:28:36.884Z,12.30
2023-05-03T02:31:06.521Z,12.30
2023-05-03T02:33:33.837Z,12.30
2023-05-03T02:36:01.101Z,12.40
2023-05-03T02:38:28.061Z,12.40
2023-05-03T02:40:55.011Z,12.40
2023-05-03T02:43:22.496Z,12.40
2023-05-03T02:45:49.524Z,12.40
2023-05-03T02:48:16.743Z,12.40
2023-05-03T02:50:43.976Z,12.40
2023-05-03T02:53:11.783Z,12.40
2023-05-03T02:55:40.140Z,12.40
2023-05-03T02:58:07.900Z,12.40
2023-05-03T03:00:35.263Z,12.40
2023-05-03T03:03:02.432Z,12.40
2023-05-03T03:05:29.473Z,12.40
2023-05-03T03:07:56.583Z,12.30
2023-05-03T03:10:24.260Z,12.40
2023-05-03T03:12:51.375Z,12.40
2023-05-03T03:15:18.417Z,12.30
2023-05-03T03:17:45.483Z,12.40
2023-05-03T03:20:12.959Z,12.40
2023-05-03T03:22:40.655Z,12.40
2023-05-03T03:25:08.444Z,12.40
2023-05-03T03:27:37.466Z,12.40
2023-05-03T03:30:08.318Z,12.40
2023-05-03T03:32:35.692Z,12.40
2023-05-03T03:35:02.776Z,12.40
2023-05-03T03:37:29.770Z,12.40
2023-05-03T03:39:57.444Z,12.40
2023-05-03T03:42:25.941Z,12.40
2023-05-03T03:44:52.999Z,12.40
2023-05-03T03:47:20.050Z,12.40
2023-05-03T03:49:47.154Z,12.40
2023-05-03T03:52:14.172Z,12.40
2023-05-03T03:54:41.159Z,12.40
2023-05-03T03:57:08.150Z,12.50
2023-05-03T03:59:35.124Z,12.50
2023-05-03T04:02:02.140Z,12.50
2023-05-03T04:04:29.270Z,12.50
2023-05-03T04:06:56.373Z,12.50
2023-05-03T04:09:23.786Z,12.50
2023-05-03T04:11:50.776Z,12.50
2023-05-03T04:14:17.818Z,12.60
2023-05-03T04:16:44.917Z,12.60
2023-05-03T04:19:11.971Z,12.60
2023-05-03T04:21:38.987Z,12.60
2023-05-03T04:24:07.664Z,12.60
2023-05-03T04:26:35.442Z,12.60
2023-05-03T04:29:02.876Z,12.60
2023-05-03T04:31:30.224Z,12.70
2023-05-03T04:33:58.133Z,12.70
2023-05-03T04:36:30.005Z,12.70
2023-05-03T04:38:57.575Z,12.70
2023-05-03T04:41:24.904Z,12.80
2023-05-03T04:43:52.347Z,12.80
2023-05-03T04:46:19.336Z,12.70
2023-05-03T04:48:46.539Z,12.70
2023-05-03T04:51:13.654Z,12.70
2023-05-03T04:53:40.646Z,12.70
2023-05-03T04:56:07.877Z,12.70
2023-05-03T04:58:34.914Z,12.70
2023-05-03T05:01:02.573Z,12.70
2023-05-03T05:03:31.775Z,12.70
2023-05-03T05:05:59.087Z,12.70
2023-05-03T05:08:26.085Z,12.70
2023-05-03T05:10:53.123Z,12.70
2023-05-03T05:13:20.120Z,12.80
2023-05-03T05:15:47.121Z,12.80
2023-05-03T05:18:14.055Z,12.90
2023-05-03T05:20:41.107Z,13.00
2023-05-03T05:23:08.073Z,13.00
2023-05-03T05:25:35.060Z,13.10
2023-05-03T05:28:01.993Z,13.10
2023-05-03T05:30:28.984Z,13.10
2023-05-03T05:32:56.027Z,13.20
2023-05-03T05:35:23.329Z,13.20
2023-05-03T05:37:50.426Z,13.30
2023-05-03T05:40:17.542Z,13.20
2023-05-03T05:42:46.758Z,13.20
2023-05-03T05:45:13.756Z,13.20
2023-05-03T05:47:40.788Z,13.30
2023-05-03T05:50:16.766Z,13.30
2023-05-03T05:52:44.909Z,13.30
2023-05-03T05:55:14.737Z,13.40
2023-05-03T05:57:41.755Z,13.40
2023-05-03T06:00:14.689Z,13.50
2023-05-03T06:02:42.919Z,13.60
2023-05-03T06:05:11.433Z,13.60
2023-05-03T06:07:38.337Z,13.70
2023-05-03T06:10:05.808Z,13.80
2023-05-03T06:12:32.927Z,13.90
2023-05-03T06:15:02.399Z,13.90
2023-05-03T06:17:30.202Z,13.90
2023-05-03T06:19:58.517Z,13.90
2023-05-03T06:22:26.525Z,14.00
2023-05-03T06:24:54.578Z,14.00
2023-05-03T06:27:21.640Z,14.00
2023-05-03T06:29:50.151Z,14.10
2023-05-03T06:32:17.118Z,14.20
2023-05-03T06:34:44.105Z,14.30
2023-05-03T06:37:11.521Z,14.40
2023-05-03T06:39:38.496Z,14.50
2023-05-03T06:42:05.757Z,14.60
2023-05-03T06:44:32.652Z,14.60
2023-05-03T06:46:59.611Z,14.70
2023-05-03T06:49:26.602Z,14.90
2023-05-03T06:51:53.593Z,14.90
2023-05-03T06:54:20.587Z,15.00
2023-05-03T06:56:47.594Z,15.20
2023-05-03T06:59:14.538Z,15.20
2023-05-03T07:01:41.524Z,15.20
2023-05-03T07:04:08.596Z,15.30
2023-05-03T07:06:48.254Z,15.30
2023-05-03T07:09:35.412Z,15.30
2023-05-03T07:12:08.950Z,15.40
2023-05-03T07:14:36.051Z,15.40
2023-05-03T07:17:02.986Z,15.50
2023-05-03T07:19:30.649Z,15.50
2023-05-03T07:21:57.680Z,15.50
2023-05-03T07:24:27.483Z,15.60
2023-05-03T07:26:54.604Z,15.60
2023-05-03T07:29:21.775Z,15.60
2023-05-03T07:31:49.862Z,15.70
2023-05-03T07:34:17.888Z,15.80
2023-05-03T07:36:44.889Z,15.90
2023-05-03T07:39:12.561Z,16.00
2023-05-03T07:41:39.585Z,16.00
2023-05-03T07:44:06.580Z,16.00
2023-05-03T07:46:35.335Z,16.00
2023-05-03T07:49:04.792Z,16.00
2023-05-03T07:51:36.692Z,16.00
2023-05-03T07:54:04.716Z,15.80
2023-05-03T07:56:32.664Z,15.80
2023-05-03T07:59:09.264Z,15.80
2023-05-03T08:01:38.041Z,16.10
2023-05-03T08:04:05.442Z,16.50
2023-05-03T08:06:36.038Z,16.60
2023-05-03T08:09:04.910Z,16.70
2023-05-03T08:11:32.171Z,16.70
2023-05-03T08:13:59.210Z,16.80
2023-05-03T08:16:26.464Z,16.70
2023-05-03T08:18:53.540Z,16.60
2023-05-03T08:21:22.204Z,16.50
2023-05-03T08:23:49.266Z,16.60
2023-05-03T08:26:16.400Z,16.50
2023-05-03T08:28:43.441Z,16.50
2023-05-03T08:31:10.570Z,16.50
2023-05-03T08:33:37.870Z,16.70
2023-05-03T08:36:05.217Z,16.70
2023-05-03T08:38:33.618Z,16.70
2023-05-03T08:41:07.857Z,16.60
2023-05-03T08:43:40.352Z,16.60
2023-05-03T08:46:11.292Z,16.60
2023-05-03T08:48:38.351Z,16.70
2023-05-03T08:51:08.620Z,16.80
2023-05-03T08:53:35.660Z,16.90
2023-05-03T08:56:07.222Z,17.00
2023-05-03T08:58:37.926Z,17.20
2023-05-03T09:01:09.204Z,17.50
2023-05-03T09:03:37.424Z,17.50
2023-05-03T09:06:20.638Z,17.70
2023-05-03T09:08:47.917Z,17.80
2023-05-03T09:11:39.889Z,17.90
2023-05-03T09:14:15.613Z,18.00
2023-05-03T09:16:46.788Z,18.10
2023-05-03T09:19:15.924Z,18.30
2023-05-03T09:21:45.009Z,18.50
2023-05-03T09:24:17.074Z,18.70
2023-05-03T09:26:46.064Z,18.80
2023-05-03T09:29:28.321Z,18.80
2023-05-03T09:32:05.057Z,18.80
2023-05-03T09:34:36.093Z,18.90
2023-05-03T09:37:03.136Z,19.10
2023-05-03T09:39:30.365Z,19.10
2023-05-03T09:41:58.111Z,19.00
2023-05-03T09:44:41.862Z,19.00
2023-05-03T09:47:09.303Z,18.90
2023-05-03T09:49:37.485Z,18.90
2023-05-03T09:52:05.174Z,19.10
2023-05-03T09:54:32.324Z,19.30
2023-05-03T09:57:01.012Z,19.50
2023-05-03T09:59:28.648Z,19.80
2023-05-03T10:02:01.714Z,19.90
2023-05-03T10:04:33.623Z,19.60
2023-05-03T10:07:06.904Z,19.40
2023-05-03T10:09:40.484Z,18.90
2023-05-03T10:12:13.408Z,18.60
2023-05-03T10:14:44.592Z,18.50
2023-05-03T10:17:47.289Z,18.30
2023-05-03T10:20:21.037Z,18.10
2023-05-03T10:23:06.594Z,17.90
2023-05-03T10:25:36.561Z,17.90
2023-05-03T10:28:04.581Z,18.00
2023-05-03T10:30:34.936Z,17.90
2023-05-03T10:33:14.458Z,17.90
2023-05-03T10:35:54.635Z,17.80
2023-05-03T10:38:27.845Z,17.90
2023-05-03T10:40:56.743Z,17.80
2023-05-03T10:43:32.551Z,17.90
2023-05-03T10:46:07.496Z,17.80
2023-05-03T10:48:35.366Z,17.70
2023-05-03T10:51:39.106Z,17.50
2023-05-03T10:54:06.236Z,17.40
2023-05-03T10:56:33.250Z,17.40
2023-05-03T10:59:00.234Z,17.50
2023-05-03T11:01:28.234Z,17.50
2023-05-03T11:04:21.345Z,17.70
2023-05-03T11:06:52.181Z,18.00
2023-05-03T11:09:19.355Z,18.40
2023-05-03T11:11:46.416Z,18.60
2023-05-03T11:14:14.074Z,18.60
2023-05-03T11:16:48.232Z,18.80
2023-05-03T11:19:15.888Z,18.50
2023-05-03T11:21:43.943Z,18.20
2023-05-03T11:24:11.659Z,18.10
2023-05-03T11:26:39.322Z,18.00
2023-05-03T11:29:06.641Z,17.80
2023-05-03T11:31:35.971Z,17.90
2023-05-03T11:34:03.295Z,17.90
2023-05-03T11:36:31.218Z,17.90
2023-05-03T11:38:58.236Z,18.00
2023-05-03T11:41:25.261Z,18.10
2023-05-03T11:44:00.757Z,18.20
2023-05-03T11:46:35.623Z,18.10
2023-05-03T11:49:03.674Z,18.10
2023-05-03T11:51:31.556Z,18.20
2023-05-03T11:54:13.041Z,18.30
2023-05-03T11:56:48.010Z,18.40
2023-05-03T11:59:15.021Z,18.50
2023-05-03T12:01:43.402Z,18.60
2023-05-03T12:04:13.149Z,18.70
2023-05-03T12:06:42.461Z,18.70
2023-05-03T12:09:15.770Z,18.80
2023-05-03T12:11:44.758Z,18.90
2023-05-03T12:14:12.766Z,19.00
2023-05-03T12:16:50.837Z,18.80
2023-05-03T12:19:31.762Z,18.70
2023-05-03T12:22:20.925Z,18.70
2023-05-03T12:24:49.394Z,18.60
2023-05-03T12:27:19.318Z,18.60
2023-05-03T12:29:47.657Z,18.60
2023-05-03T12:32:15.380Z,18.60
2023-05-03T12:34:42.999Z,18.70
2023-05-03T12:37:16.766Z,18.70
2023-05-03T12:39:47.329Z,18.70
2023-05-03T12:42:21.950Z,18.70
2023-05-03T12:44:52.051Z,18.70
2023-05-03T12:47:28.294Z,18.80
2023-05-03T12:49:59.623Z,18.80
2023-05-03T12:55:03.082Z,18.90
2023-05-03T12:57:33.797Z,18.80
2023-05-03T13:00:11.571Z,18.80
2023-05-03T13:03:21.244Z,18.80
2023-05-03T13:05:35.252Z,18.70
2023-05-03T13:08:09.187Z,18.60
2023-05-03T13:10:41.548Z,18.50
2023-05-03T13:13:09.721Z,18.50
2023-05-03T13:15:37.853Z,18.40
2023-05-03T13:18:08.200Z,18.30
2023-05-03T13:20:37.206Z,18.20
2023-05-03T13:23:04.884Z,18.00
2023-05-03T13:25:32.051Z,18.00
2023-05-03T13:28:02.013Z,18.00
2023-05-03T13:30:29.371Z,18.00
2023-05-03T13:32:56.335Z,17.90
2023-05-03T13:35:23.403Z,17.80
2023-05-03T13:37:51.131Z,17.80
2023-05-03T13:40:18.262Z,17.80
2023-05-03T13:42:45.575Z,17.70
2023-05-03T13:45:13.689Z,17.70
2023-05-03T13:48:04.770Z,17.70
2023-05-03T13:50:31.587Z,17.70
2023-05-03T13:52:58.563Z,17.70
2023-05-03T13:55:26.995Z,17.70
2023-05-03T13:57:53.987Z,17.80
2023-05-03T14:00:21.162Z,17.80
2023-05-03T14:02:48.420Z,17.80
2023-05-03T14:05:15.626Z,17.80
2023-05-03T14:07:42.596Z,17.90
2023-05-03T14:10:11.108Z,18.00
2023-05-03T14:12:38.535Z,17.90
2023-05-03T14:15:07.062Z,17.90
2023-05-03T14:17:34.524Z,18.00
2023-05-03T14:20:02.057Z,18.00
2023-05-03T14:22:29.460Z,18.10
2023-05-03T14:24:56.857Z,18.20
2023-05-03T14:27:23.916Z,18.30
2023-05-03T14:29:51.676Z,18.30
2023-05-03T14:32:20.271Z,18.30
2023-05-03T14:34:47.449Z,18.20
2023-05-03T14:37:14.493Z,18.10
2023-05-03T14:39:41.497Z,18.10
2023-05-03T14:42:10.490Z,18.10
2023-05-03T14:44:37.627Z,18.10
2023-05-03T14:47:06.519Z,18.10
2023-05-03T14:49:41.092Z,18.20
2023-05-03T14:52:09.080Z,18.20
2023-05-03T14:54:37.829Z,18.30
2023-05-03T14:57:05.362Z,18.30
2023-05-03T14:59:36.037Z,18.30
2023-05-03T15:02:03.158Z,18.30
2023-05-03T15:04:30.980Z,18.30
2023-05-03T15:07:02.981Z,18.30
2023-05-03T15:09:33.815Z,18.30
2023-05-03T15:12:02.191Z,18.30
2023-05-03T15:14:29.457Z,18.30
2023-05-03T15:16:56.517Z,18.40
2023-05-03T15:19:23.568Z,18.30
2023-05-03T15:21:51.664Z,18.30
2023-05-03T15:24:19.035Z,18.30
2023-05-03T15:26:47.278Z,18.30
2023-05-03T15:29:15.860Z,18.20
2023-05-03T15:31:43.938Z,18.10
2023-05-03T15:34:12.595Z,18.10
2023-05-03T15:36:40.818Z,18.10
2023-05-03T15:39:09.575Z,18.10
2023-05-03T15:41:36.653Z,18.00
2023-05-03T15:44:05.512Z,18.00
2023-05-03T15:46:33.739Z,18.00
2023-05-03T15:49:01.287Z,18.00
2023-05-03T15:51:29.441Z,17.90
2023-05-03T15:53:56.568Z,17.90
2023-05-03T15:56:23.714Z,17.90
2023-05-03T15:58:50.760Z,17.90
2023-05-03T16:01:19.061Z,17.90
2023-05-03T16:03:46.425Z,17.90
2023-05-03T16:06:16.930Z,17.90
2023-05-03T16:08:44.366Z,17.80
2023-05-03T16:11:12.845Z,17.80
2023-05-03T16:13:39.915Z,17.80
2023-05-03T16:16:07.037Z,17.80
2023-05-03T16:18:34.245Z,17.70
2023-05-03T16:21:02.308Z,17.60
2023-05-03T16:23:29.426Z,17.70
2023-05-03T16:25:57.059Z,17.70
2023-05-03T16:28:24.125Z,17.70
2023-05-03T16:30:51.790Z,17.70
2023-05-03T16:33:18.776Z,17.80
2023-05-03T16:35:46.202Z,17.70
2023-05-03T16:38:13.213Z,17.80
2023-05-03T16:40:40.583Z,17.80
2023-05-03T16:43:07.893Z,17.80
2023-05-03T16:45:34.949Z,17.80
2023-05-03T16:48:04.858Z,17.80
2023-05-03T16:50:33.250Z,17.80
2023-05-03T16:53:00.301Z,17.80
2023-05-03T16:55:27.281Z,17.80
2023-05-03T16:57:54.303Z,18.00
2023-05-03T17:00:22.007Z,18.00
2023-05-03T17:02:49.283Z,18.00
2023-05-03T17:05:16.525Z,18.00
2023-05-03T17:07:43.510Z,17.90
2023-05-03T17:10:10.779Z,17.90
2023-05-03T17:12:38.009Z,17.80
2023-05-03T17:15:05.442Z,17.80
2023-05-03T17:17:32.852Z,17.80
2023-05-03T17:19:59.942Z,17.90
2023-05-03T17:22:26.947Z,17.90
2023-05-03T17:24:55.364Z,18.00
2023-05-03T17:27:24.336Z,18.00
2023-05-03T17:29:51.501Z,18.00
2023-05-03T17:32:18.546Z,18.10
2023-05-03T17:34:45.772Z,18.20
2023-05-03T17:37:12.838Z,18.20
2023-05-03T17:39:39.917Z,18.20
2023-05-03T17:42:07.007Z,18.10
2023-05-03T17:44:34.470Z,17.90
2023-05-03T17:47:01.440Z,17.70
2023-05-03T17:49:29.047Z,17.50
2023-05-03T17:51:57.229Z,17.30
2023-05-03T17:54:24.839Z,17.20
2023-05-03T17:56:52.122Z,17.10
2023-05-03T17:59:19.132Z,16.90
2023-05-03T18:01:48.560Z,16.80
2023-05-03T18:04:15.633Z,16.70
2023-05-03T18:06:43.479Z,16.60
2023-05-03T18:09:10.795Z,16.40
2023-05-03T18:11:37.975Z,16.30
2023-05-03T18:14:05.129Z,16.10
2023-05-03T18:16:33.178Z,16.00
2023-05-03T18:19:01.160Z,16.00
2023-05-03T18:21:29.810Z,15.80
2023-05-03T18:23:57.284Z,15.70
2023-05-03T18:26:25.964Z,15.60
2023-05-03T18:28:53.902Z,15.50
2023-05-03T18:31:22.000Z,15.40
2023-05-03T18:33:49.842Z,15.20
2023-05-03T18:36:17.682Z,15.10
2023-05-03T18:38:47.331Z,15.00
2023-05-03T18:41:16.149Z,14.90
2023-05-03T18:43:44.689Z,14.80
2023-05-03T18:46:16.934Z,14.70
2023-05-03T18:48:44.467Z,14.60
2023-05-03T18:51:11.795Z,14.50
2023-05-03T18:53:39.399Z,14.40
2023-05-03T18:56:07.210Z,14.30
2023-05-03T18:58:34.874Z,14.30
2023-05-03T19:01:05.245Z,14.20
2023-05-03T19:03:33.167Z,14.10
2023-05-03T19:06:05.241Z,14.00
2023-05-03T19:08:33.196Z,13.90
2023-05-03T19:11:13.198Z,13.80
2023-05-03T19:13:43.205Z,13.70
2023-05-03T19:16:11.405Z,13.70
2023-05-03T19:18:42.446Z,13.60
2023-05-03T19:21:12.253Z,13.60
2023-05-03T19:23:39.841Z,13.50
2023-05-03T19:26:07.727Z,13.40
2023-05-03T19:28:36.292Z,13.30
2023-05-03T19:31:07.523Z,13.30
2023-05-03T19:33:35.389Z,13.20
2023-05-03T19:36:09.241Z,13.10
2023-05-03T19:38:36.659Z,13.10
2023-05-03T19:41:12.057Z,13.00
2023-05-03T19:43:40.949Z,12.90
2023-05-03T19:46:08.530Z,12.90
2023-05-03T19:48:36.292Z,12.90
2023-05-03T19:51:05.795Z,12.80
2023-05-03T19:53:35.803Z,12.70
2023-05-03T19:56:03.326Z,12.70
2023-05-03T19:58:32.102Z,12.60
2023-05-03T20:00:59.986Z,12.60
2023-05-03T20:03:28.285Z,12.50
2023-05-03T20:05:56.075Z,12.50
2023-05-03T20:08:25.039Z,12.50
2023-05-03T20:10:52.939Z,12.40
2023-05-03T20:13:20.069Z,12.40
2023-05-03T20:15:47.463Z,12.40
2023-05-03T20:18:14.801Z,12.30
2023-05-03T20:20:42.231Z,12.30
2023-05-03T20:23:09.367Z,12.20
2023-05-03T20:25:36.755Z,12.20
2023-05-03T20:28:04.189Z,12.10
2023-05-03T20:30:32.312Z,12.10
2023-05-03T20:32:59.895Z,12.00
2023-05-03T20:35:27.009Z,12.00
2023-05-03T20:37:54.024Z,11.90
2023-05-03T20:40:21.312Z,11.80
2023-05-03T20:42:48.386Z,11.80
2023-05-03T20:45:15.477Z,11.70
2023-05-03T20:47:42.655Z,11.70
2023-05-03T20:50:09.919Z,11.70
2023-05-03T20:52:36.908Z,11.60
2023-05-03T20:55:04.005Z,11.60
2023-05-03T20:57:31.433Z,11.50
2023-05-03T20:59:59.992Z,11.50
2023-05-03T21:02:27.100Z,11.40
2023-05-03T21:04:54.103Z,11.40
2023-05-03T21:07:21.172Z,11.40
2023-05-03T21:09:48.144Z,11.30
2023-05-03T21:12:15.161Z,11.30
2023-05-03T21:14:42.177Z,11.20
2023-05-03T21:17:10.027Z,11.10
2023-05-03T21:19:37.042Z,11.10
2023-05-03T21:22:04.023Z,11.10
2023-05-03T21:24:31.236Z,11.10
2023-05-03T21:26:59.150Z,11.00
2023-05-03T21:29:26.113Z,11.00
2023-05-03T21:31:53.114Z,11.00
2023-05-03T21:34:20.155Z,11.00
2023-05-03T21:36:47.219Z,10.90
2023-05-03T21:39:14.228Z,10.90
2023-05-03T21:41:41.372Z,10.90
2023-05-03T21:44:08.333Z,10.80
2023-05-03T21:46:36.294Z,10.80
2023-05-03T21:49:03.651Z,10.70
2023-05-03T21:51:31.513Z,10.60
2023-05-03T21:53:58.529Z,10.60
2023-05-03T21:56:25.487Z,10.50
2023-05-03T21:58:52.433Z,10.50
2023-05-03T22:01:22.578Z,10.50
2023-05-03T22:03:50.477Z,10.50
2023-05-03T22:06:17.977Z,10.50
2023-05-03T22:08:44.976Z,10.40
2023-05-03T22:11:12.620Z,10.40
2023-05-03T22:13:54.610Z,10.40
2023-05-03T22:16:26.729Z,10.40
2023-05-03T22:18:53.758Z,10.40
2023-05-03T22:21:20.970Z,10.40
2023-05-03T22:23:48.330Z,10.40
2023-05-03T22:26:15.309Z,10.40
2023-05-03T22:28:42.295Z,10.40
2023-05-03T22:31:09.295Z,10.30
2023-05-03T22:33:36.361Z,10.30
2023-05-03T22:36:03.477Z,10.30
2023-05-03T22:38:30.523Z,10.20
2023-05-03T22:40:57.711Z,10.20
2023-05-03T22:43:24.745Z,10.20
2023-05-03T22:45:51.988Z,10.10
2023-05-03T22:48:19.151Z,10.10
2023-05-03T22:50:46.445Z,10.10
2023-05-03T22:53:13.414Z,10.10
2023-05-03T22:55:40.621Z,10.00
2023-05-03T22:58:07.626Z,10.00
2023-05-03T23:00:34.568Z,10.00
2023-05-03T23:03:01.652Z,10.00
2023-05-03T23:05:28.727Z,10.00
2023-05-03T23:07:55.767Z,10.10
2023-05-03T23:10:22.903Z,10.00
2023-05-03T23:12:50.219Z,10.10
2023-05-03T23:15:17.554Z,10.00
2023-05-03T23:17:44.735Z,10.10
2023-05-03T23:20:12.500Z,10.00
2023-05-03T23:22:42.510Z,10.00
2023-05-03T23:25:09.987Z,10.00
2023-05-03T23:27:36.964Z,10.00
2023-05-03T23:30:05.238Z,10.00
2023-05-03T23:32:33.077Z,10.00
2023-05-03T23:35:00.471Z,10.00
2023-05-03T23:37:27.632Z,9.90
2023-05-03T23:39:54.947Z,9.90
2023-05-03T23:42:21.910Z,9.90
2023-05-03T23:44:55.380Z,9.80
2023-05-03T23:47:23.423Z,9.80
2023-05-03T23:49:50.577Z,9.80
2023-05-03T23:52:19.198Z,9.70
2023-05-03T23:54:46.567Z,9.70
2023-05-03T23:57:13.621Z,9.60
2023-05-03T23:59:40.548Z,9.60
